Annette, Alaska
Current Conditions -  °F | °C
As of 11:02 AM on Thursday 23 Oct 2014 (Local Time) from PANT Reporting Station
Light Rain Light Rain  
Wind Chill: 50°   Ceiling: 2300
Heat Index: 50°   Visibility: 10mi
Dew Point: 44°   Wind: 13mph
Humidity: 80%   Direction: 140°SE
Pressure: 29.61"   Gusts: NA
Location:  55.05°N, 131.6°W
Report Text: PANT 232002Z 14011KT 10SM -RA BKN023 BKN031 OVC070 10/07 A2961 RMK AO2 P0000 T01000067
Loading
Personal Weather Stations






























Interactive Weather Map
Tropical Storm Tracking
New forecast layout! Learn more

10-Day Weather Forecast

Advertisements
Track Severe Weather on mobile